createdAt,value
2019-01-28T00:01:56.497Z,1.9
2019-01-28T00:06:56.499Z,2
2019-01-28T00:11:56.548Z,2
2019-01-28T00:16:56.504Z,2
2019-01-28T00:21:56.518Z,2
2019-01-28T00:26:56.638Z,2
2019-01-28T00:31:56.605Z,2
2019-01-28T00:36:56.525Z,2
2019-01-28T00:41:57.625Z,2
2019-01-28T00:46:56.673Z,2
2019-01-28T00:51:56.669Z,2
2019-01-28T00:56:56.511Z,2
2019-01-28T01:01:56.636Z,1.9
2019-01-28T01:06:56.720Z,1.9
2019-01-28T01:11:56.527Z,1.9
2019-01-28T01:16:56.538Z,1.9
2019-01-28T01:21:56.535Z,2
2019-01-28T01:26:56.536Z,2
2019-01-28T01:31:56.538Z,2
2019-01-28T01:36:56.563Z,2.1
2019-01-28T01:41:56.560Z,2.2
2019-01-28T01:46:56.557Z,2.2
2019-01-28T01:51:56.914Z,2.1
2019-01-28T01:56:56.573Z,2.1
2019-01-28T02:01:56.541Z,2
2019-01-28T02:06:56.711Z,2
2019-01-28T02:11:56.755Z,2
2019-01-28T02:16:56.751Z,2
2019-01-28T02:21:56.570Z,2
2019-01-28T02:26:56.742Z,2
2019-01-28T02:31:56.561Z,2
2019-01-28T02:36:56.585Z,2
2019-01-28T02:41:56.579Z,2
2019-01-28T02:46:56.591Z,1.9
2019-01-28T02:51:56.592Z,1.9
2019-01-28T02:56:56.581Z,1.9
2019-01-28T03:01:56.599Z,1.9
2019-01-28T03:06:56.833Z,1.9
2019-01-28T03:11:56.552Z,1.9
2019-01-28T03:16:56.593Z,1.9
2019-01-28T03:21:56.606Z,1.9
2019-01-28T03:26:56.751Z,1.9
2019-01-28T03:31:56.600Z,1.9
2019-01-28T03:36:56.818Z,1.9
2019-01-28T03:41:56.610Z,2.1
2019-01-28T03:46:56.794Z,2.2
2019-01-28T03:51:56.822Z,2.3
2019-01-28T03:56:56.618Z,2.3
2019-01-28T04:01:56.630Z,2.3
2019-01-28T04:06:56.821Z,2.3
2019-01-28T04:11:56.623Z,2.3
2019-01-28T04:16:56.638Z,2.3
2019-01-28T04:21:56.772Z,2.2
2019-01-28T04:26:56.633Z,2.1
2019-01-28T04:31:56.643Z,2.1
2019-01-28T04:36:56.825Z,2
2019-01-28T04:41:56.638Z,2
2019-01-28T04:46:56.894Z,1.9
2019-01-28T04:51:56.647Z,2
2019-01-28T04:56:56.672Z,1.9
2019-01-28T05:01:56.621Z,1.9
2019-01-28T05:06:56.674Z,2
2019-01-28T05:11:56.754Z,2.1
2019-01-28T05:16:56.793Z,1.9
2019-01-28T05:21:56.776Z,1.9
2019-01-28T05:26:56.836Z,2
2019-01-28T05:31:56.692Z,2
2019-01-28T05:36:56.819Z,2
2019-01-28T05:41:56.686Z,2
2019-01-28T05:46:56.892Z,2
2019-01-28T05:51:56.672Z,2
2019-01-28T05:56:56.699Z,2
2019-01-28T06:01:56.894Z,2
2019-01-28T06:06:56.812Z,2
2019-01-28T06:11:56.694Z,2.1
2019-01-28T06:16:56.715Z,2.1
2019-01-28T06:21:56.657Z,2.1
2019-01-28T06:26:56.857Z,2.2
2019-01-28T06:31:56.712Z,2.2
2019-01-28T06:36:56.733Z,2.2
2019-01-28T06:41:56.712Z,2.2
2019-01-28T06:46:56.713Z,2.2
2019-01-28T06:51:56.722Z,2.2
2019-01-28T06:56:56.731Z,2.2
2019-01-28T07:01:56.734Z,2.2
2019-01-28T07:06:56.724Z,2.2
2019-01-28T07:11:56.963Z,2.2
2019-01-28T07:16:56.880Z,2.2
2019-01-28T07:21:56.915Z,2.2
2019-01-28T07:26:56.748Z,2.3
2019-01-28T07:31:56.741Z,2.3
2019-01-28T07:36:56.728Z,2.3
2019-01-28T07:41:56.968Z,2.3
2019-01-28T07:46:56.745Z,2.3
2019-01-28T07:51:56.919Z,2.3
2019-01-28T07:56:56.960Z,2.4
2019-01-28T08:01:56.993Z,2.4
2019-01-28T08:06:59.427Z,2.5
2019-01-28T08:11:56.734Z,2.5
2019-01-28T08:16:56.771Z,2.5
2019-01-28T08:21:56.917Z,2.6
2019-01-28T08:26:56.778Z,2.6
2019-01-28T08:31:57.007Z,2.7
2019-01-28T08:36:57.227Z,2.7
2019-01-28T08:41:56.740Z,2.8
2019-01-28T08:46:56.994Z,2.8
2019-01-28T08:51:56.802Z,2.9
2019-01-28T08:56:56.744Z,2.9
2019-01-28T09:01:57.000Z,3
2019-01-28T09:06:56.808Z,3
2019-01-28T09:11:56.794Z,3.1
2019-01-28T09:16:56.796Z,3.2
2019-01-28T09:21:56.797Z,3.4
2019-01-28T09:26:56.952Z,3.5
2019-01-28T09:31:57.013Z,3.7
2019-01-28T09:36:56.799Z,3.8
2019-01-28T09:41:56.799Z,4
2019-01-28T09:46:56.827Z,4.1
2019-01-28T09:51:56.813Z,4.2
2019-01-28T09:56:57.073Z,4.2
2019-01-28T10:01:56.852Z,4.2
2019-01-28T10:06:56.839Z,4.2
2019-01-28T10:11:56.847Z,4.3
2019-01-28T10:16:56.834Z,4.3
2019-01-28T10:21:57.010Z,4.3
2019-01-28T10:26:57.076Z,4.4
2019-01-28T10:31:56.989Z,4.3
2019-01-28T10:36:57.054Z,4.3
2019-01-28T10:41:56.850Z,4.4
2019-01-28T10:46:56.998Z,4.4
2019-01-28T10:51:58.116Z,4.4
2019-01-28T10:56:57.085Z,4.5
2019-01-28T11:01:56.990Z,4.5
2019-01-28T11:06:57.018Z,4.6
2019-01-28T11:11:57.188Z,4.7
2019-01-28T11:16:57.029Z,4.7
2019-01-28T11:21:57.109Z,4.7
2019-01-28T11:26:56.974Z,4.8
2019-01-28T11:31:57.129Z,4.8
2019-01-28T11:36:57.131Z,4.8
2019-01-28T11:41:56.925Z,4.9
2019-01-28T11:46:57.245Z,5
2019-01-28T11:51:56.881Z,5
2019-01-28T11:56:57.096Z,5
2019-01-28T12:01:57.118Z,5.1
2019-01-28T12:06:57.151Z,5.3
2019-01-28T12:11:56.894Z,5.6
2019-01-28T12:16:56.914Z,5.8
2019-01-28T12:21:56.919Z,5.8
2019-01-28T12:26:56.925Z,5.7
2019-01-28T12:31:56.851Z,5.6
2019-01-28T12:36:56.934Z,5.6
2019-01-28T12:41:56.924Z,5.6
2019-01-28T12:46:56.875Z,5.5
2019-01-28T12:51:57.164Z,5.7
2019-01-28T12:56:56.938Z,5.7
2019-01-28T13:01:56.928Z,5.5
2019-01-28T13:06:56.946Z,5.4
2019-01-28T13:11:56.905Z,5.4
2019-01-28T13:16:56.928Z,5.3
2019-01-28T13:21:56.933Z,5.4
2019-01-28T13:26:57.086Z,5.4
2019-01-28T13:31:56.939Z,5.1
2019-01-28T13:36:57.111Z,5.1
2019-01-28T13:41:57.174Z,5
2019-01-28T13:46:57.096Z,5
2019-01-28T13:51:56.981Z,4.9
2019-01-28T13:56:57.181Z,4.9
2019-01-28T14:01:56.958Z,4.8
2019-01-28T14:06:57.087Z,4.7
2019-01-28T14:11:56.980Z,4.7
2019-01-28T14:16:57.078Z,4.7
2019-01-28T14:21:56.965Z,4.7
2019-01-28T14:26:57.196Z,4.7
2019-01-28T14:31:56.993Z,4.7
2019-01-28T14:36:56.996Z,4.7
2019-01-28T14:41:57.045Z,4.7
2019-01-28T14:46:57.206Z,4.7
2019-01-28T14:51:56.989Z,4.6
2019-01-28T14:56:56.985Z,4.6
2019-01-28T15:01:57.214Z,4.6
2019-01-28T15:06:57.128Z,4.5
2019-01-28T15:11:56.987Z,4.6
2019-01-28T15:16:57.204Z,4.5
2019-01-28T15:21:57.013Z,4.5
2019-01-28T15:26:57.194Z,4.4
2019-01-28T15:31:57.022Z,4.4
2019-01-28T15:36:56.983Z,4.3
2019-01-28T15:41:57.195Z,4.2
2019-01-28T15:46:56.963Z,4.2
2019-01-28T15:51:57.151Z,4.2
2019-01-28T15:56:57.030Z,4.1
2019-01-28T16:01:57.029Z,4
2019-01-28T16:06:57.650Z,4
2019-01-28T16:11:57.025Z,3.9
2019-01-28T16:16:57.007Z,3.8
2019-01-28T16:21:57.135Z,3.7
2019-01-28T16:26:57.046Z,3.6
2019-01-28T16:31:57.056Z,3.5
2019-01-28T16:36:57.044Z,3.4
2019-01-28T16:41:56.994Z,3.3
2019-01-28T16:46:57.048Z,3.2
2019-01-28T16:51:57.039Z,3.2
2019-01-28T16:56:57.047Z,3
2019-01-28T17:01:57.059Z,2.9
2019-01-28T17:06:57.058Z,2.7
2019-01-28T17:11:57.004Z,2.6
2019-01-28T17:16:57.417Z,2.5
2019-01-28T17:21:57.084Z,2.3
2019-01-28T17:26:57.047Z,2.2
2019-01-28T17:31:57.763Z,2
2019-01-28T17:37:00.182Z,1.9
2019-01-28T17:41:57.075Z,1.8
2019-01-28T17:46:57.069Z,1.7
2019-01-28T17:51:57.103Z,1.6
2019-01-28T17:56:57.077Z,1.5
2019-01-28T18:01:57.097Z,1.5
2019-01-28T18:06:57.097Z,1.4
2019-01-28T18:11:57.104Z,1.3
2019-01-28T18:16:57.089Z,1.3
2019-01-28T18:21:57.104Z,1.3
2019-01-28T18:26:57.115Z,1.2
2019-01-28T18:31:57.119Z,1.2
2019-01-28T18:36:57.101Z,1.1
2019-01-28T18:41:57.914Z,1.1
2019-01-28T18:46:57.093Z,1
2019-01-28T18:51:57.122Z,1
2019-01-28T18:56:57.116Z,1
2019-01-28T19:01:57.109Z,1
2019-01-28T19:06:57.134Z,1.1
2019-01-28T19:11:57.143Z,1.1
2019-01-28T19:16:57.137Z,1.2
2019-01-28T19:21:57.148Z,1.2
2019-01-28T19:26:57.237Z,1.3
2019-01-28T19:31:57.141Z,1.3
2019-01-28T19:36:57.256Z,1.6
2019-01-28T19:41:57.094Z,1.8
2019-01-28T19:46:57.776Z,1.9
2019-01-28T19:51:57.153Z,2
2019-01-28T19:56:57.276Z,2.3
2019-01-28T20:01:57.152Z,2.4
2019-01-28T20:06:57.168Z,2.6
2019-01-28T20:11:57.158Z,2.6
2019-01-28T20:16:57.171Z,2.7
2019-01-28T20:21:57.178Z,2.7
2019-01-28T20:26:57.186Z,2.7
2019-01-28T20:31:58.086Z,2.7
2019-01-28T20:36:57.188Z,2.6
2019-01-28T20:41:57.160Z,2.6
2019-01-28T20:46:57.179Z,2.6
2019-01-28T20:51:57.183Z,2.6
2019-01-28T20:56:57.194Z,2.5
2019-01-28T21:01:57.214Z,2.6
2019-01-28T21:06:57.258Z,2.6
2019-01-28T21:11:57.202Z,2.6
2019-01-28T21:16:57.194Z,2.6
2019-01-28T21:21:57.251Z,2.6
2019-01-28T21:26:57.221Z,2.5
2019-01-28T21:31:57.258Z,2.5
2019-01-28T21:36:57.234Z,2.5
2019-01-28T21:41:57.183Z,2.5
2019-01-28T21:46:57.220Z,2.6
2019-01-28T21:51:57.218Z,2.6
2019-01-28T21:56:57.226Z,2.6
2019-01-28T22:01:57.199Z,2.6
2019-01-28T22:06:57.221Z,2.6
2019-01-28T22:11:57.219Z,2.6
2019-01-28T22:16:57.423Z,2.7
2019-01-28T22:21:59.161Z,2.7
2019-01-28T22:26:57.222Z,2.7
2019-01-28T22:31:57.229Z,2.7
2019-01-28T22:36:57.683Z,2.7
2019-01-28T22:41:57.497Z,2.7
2019-01-28T22:46:57.253Z,2.7
2019-01-28T22:51:57.248Z,2.7
2019-01-28T22:56:57.247Z,2.7
2019-01-28T23:01:57.249Z,2.8
2019-01-28T23:06:57.251Z,2.7
2019-01-28T23:11:57.258Z,2.7
2019-01-28T23:16:57.407Z,2.7
2019-01-28T23:21:57.481Z,2.7
2019-01-28T23:26:57.283Z,2.7
2019-01-28T23:31:57.265Z,2.7
2019-01-28T23:36:57.276Z,2.6
2019-01-28T23:41:57.398Z,2.6
2019-01-28T23:46:57.296Z,2.7
2019-01-28T23:51:57.280Z,2.6
2019-01-28T23:56:57.284Z,2.6
